Latest Weather Observations for Strathalbyn

IDS60901

Issued at 6:01 am CDT Wednesday 13 November 2019 (issued every 10 minutes, with the page automatically refreshed every 10 minutes)

About weather observations | Map of Adelaide area stations | Latest observations for Adelaide area | Other Formats
Station Details ID: 024580 Name: STRATHALBYN RACECOURSE Lat: -35.28 Lon: 138.89 Height: 58.0 m
Data from the previous 72 hours. | See also: Recent months at Strathalbyn
Date/Time
CDT
Temp
°C
App
Temp
°C
Dew
Point
°C
Rel
Hum
%
Delta-T
°C
Wind Press
QNH
hPa
Press
MSL
hPa
Rain since
9am
mm
Dir  Spd
km/h
Gust
km/h
Spd
kts
Gust
kts
13/06:00am 10.8 7.0 6.0 72 2.2 W 15 20 8 11 1020.7 1020.5 0.0
13/05:30am 11.1 6.6 6.3 72 2.2 WSW 19 24 10 13 1020.6 1020.4 0.0
13/05:00am 11.5 6.9 6.6 72 2.3 WSW 20 32 11 17 1020.6 1020.4 0.0
13/04:30am 11.5 7.0 6.2 70 2.5 WSW 19 26 10 14 1020.9 1020.7 0.0
13/04:00am 11.9 7.8 6.2 68 2.7 W 17 20 9 11 1020.8 1020.6 0.0
13/03:30am 11.8 8.0 5.7 66 2.8 W 15 22 8 12 1021.0 1020.8 0.0
13/03:00am 11.7 7.7 5.1 64 3.0 W 15 19 8 10 1021.2 1021.0 0.0
13/02:30am 11.5 7.8 4.7 63 3.1 W 13 20 7 11 1021.7 1021.6 0.0
13/02:00am 11.4 7.7 4.2 61 3.2 WSW 13 17 7 9 1021.9 1021.8 0.0
13/01:30am 11.9 7.4 4.4 60 3.4 WSW 17 22 9 12 1022.2 1022.1 0.0
13/01:00am 11.4 6.5 4.2 61 3.2 W 19 24 10 13 1022.3 1022.2 0.0
13/12:30am 10.6 6.2 4.5 66 2.7 WNW 17 20 9 11 1022.5 1022.4 0.0
13/12:00am 10.0 5.8 4.0 66 2.6 WNW 15 20 8 11 1022.7 1022.6 0.0
 
Date/Time
CDT
Temp
°C
App
Temp
°C
Dew
Point
°C
Rel
Hum
%
Delta-T
°C
Wind Press
QNH
hPa
Press
MSL
hPa
Rain since
9am
mm
Dir  Spd
km/h
Gust
km/h
Spd
kts
Gust
kts
12/11:30pm 10.1 5.9 3.6 64 2.8 WNW 15 20 8 11 1022.6 1022.5 0.0
12/11:00pm 10.6 6.1 4.1 64 2.9 W 17 20 9 11 1022.6 1022.5 0.0
12/10:30pm 10.8 5.9 4.3 64 2.9 W 19 26 10 14 1022.5 1022.4 0.0
12/10:00pm 10.6 6.9 4.3 65 2.8 WSW 13 19 7 10 1022.2 1022.1 0.0
12/09:30pm 10.6 7.3 4.3 65 2.8 WSW 11 15 6 8 1022.0 1021.9 0.0
12/09:00pm 11.9 8.3 5.1 63 3.1 SW 13 19 7 10 1021.8 1021.7 0.0
12/08:30pm 12.5 7.8 5.2 61 3.4 SW 19 22 10 12 1021.6 1021.5 0.0
12/08:00pm 12.8 7.7 4.0 55 4.0 SW 20 32 11 17 1021.3 1021.2 0.0
12/07:30pm 13.4 7.4 3.2 50 4.5 SW 24 35 13 19 1020.9 1020.7 0.0
12/07:00pm 14.1 6.4 2.4 45 5.2 SSW 32 43 17 23 1020.4 1020.2 0.0
12/06:30pm 14.9 7.5 4.0 48 5.0 SSW 32 41 17 22 1019.7 1019.6 0.0
12/06:00pm 15.7 8.2 4.7 48 5.2 SSW 33 43 18 23 1019.3 1019.2 0.0
12/05:30pm 16.1 8.6 3.5 43 5.8 SSW 32 46 17 25 1019.0 1018.9 0.0
12/05:00pm 16.4 8.8 4.1 44 5.7 SSW 33 43 18 23 1018.5 1018.4 0.0
12/04:30pm 17.2 10.0 4.9 44 5.9 SSW 32 44 17 24 1018.3 1018.2 0.0
12/04:01pm 16.5 9.3 5.2 47 5.4 SW 32 50 17 27 1018.2 1018.1 0.0
12/04:00pm 15.7 8.2 4.7 48 5.2 SW 33 50 18 27 1018.2 1018.1 0.0
12/03:30pm 15.7 7.2 5.0 49 5.1 SSW 39 52 21 28 1018.1 1018.0 0.0
12/03:07pm 16.6 9.1 4.3 44 5.8 SSW 33 52 18 28 1017.8 1017.7 0.0
12/03:00pm 17.8 10.3 3.3 38 6.7 SSW 32 46 17 25 1018.0 1017.9 0.0
12/02:38pm 17.8 9.7 0.0 30 7.7 SW 32 50 17 27 1018.1 1018.0 0.0
12/02:30pm 17.6 9.4 0.3 31 7.5 SW 33 50 18 27 1018.0 1017.9 0.0
12/02:05pm 16.5 9.2 0.2 33 7.0 SW 28 56 15 30 1017.9 1017.8 0.0
12/02:00pm 17.0 9.8 0.6 33 7.2 SW 28 44 15 24 1018.0 1017.9 0.0
12/01:41pm 18.7 11.6 3.3 36 7.2 SW 30 65 16 35 1017.8 1017.7 0.0
12/01:30pm 17.0 9.2 1.4 35 6.9 WSW 32 46 17 25 1018.0 1017.9 0.0
12/01:20pm 16.4 8.8 2.8 40 6.2 SW 32 48 17 26 1018.2 1018.1 0.0
12/01:00pm 15.8 8.9 2.6 41 6.0 SW 28 37 15 20 1018.0 1017.9 0.0
12/12:30pm 15.6 9.8 2.4 41 5.9 SW 22 33 12 18 1017.9 1017.8 0.0
12/12:00pm 16.1 8.3 1.8 38 6.3 SW 32 46 17 25 1017.8 1017.7 0.0
12/11:32am 16.4 8.5 1.3 36 6.7 SW 32 50 17 27 1017.4 1017.3 0.0
12/11:30am 16.6 8.8 1.9 37 6.6 SW 32 44 17 24 1017.7 1017.6 0.0
12/11:09am 15.9 8.7 0.9 36 6.5 SW 28 46 15 25 1017.6 1017.5 0.0
12/11:00am 15.0 7.5 1.2 39 6.0 SW 30 44 16 24 1017.6 1017.5 0.0
12/10:39am 14.9 8.3 4.3 49 4.9 SW 28 46 15 25 1017.7 1017.6 0.0
12/10:30am 14.8 8.3 4.5 50 4.8 SW 28 44 15 24 1017.7 1017.6 0.0
12/10:00am 14.8 8.8 3.6 47 5.1 WSW 24 39 13 21 1017.2 1017.1 0.0
12/09:30am 13.7 8.5 5.6 58 3.8 WSW 22 35 12 19 1017.1 1017.0 0.0
12/09:00am 11.4 6.5 6.9 74 2.1 SW 22 32 12 17 1017.0 1016.9 0.0
12/08:30am 13.0 8.0 4.4 56 3.9 WSW 20 28 11 15 1016.3 1016.2 0.0
12/08:00am 12.6 7.4 3.8 55 4.0 WSW 20 30 11 16 1015.8 1015.7 0.0
12/07:30am 12.5 7.4 2.9 52 4.2 WSW 19 35 10 19 1015.4 1015.3 0.0
12/07:00am 12.4 8.4 2.8 52 4.2 WSW 13 24 7 13 1015.0 1014.9 0.0
12/06:30am 12.1 7.7 4.6 60 3.4 WSW 17 26 9 14 1014.7 1014.6 0.0
12/06:00am 11.9 8.1 5.8 66 2.9 WSW 15 26 8 14 1014.0 1013.9 0.0
12/05:30am 11.7 7.6 6.2 69 2.6 WSW 17 26 9 14 1013.5 1013.4 0.0
12/05:00am 12.3 8.6 4.3 58 3.6 SW 13 17 7 9 1013.1 1013.0 0.0
12/04:30am 12.1 7.2 4.1 58 3.6 SW 19 30 10 16 1012.7 1012.6 0.0
12/04:00am 12.4 7.0 4.6 59 3.6 SW 22 32 12 17 1012.5 1012.4 0.0
12/03:30am 12.7 8.7 4.9 59 3.6 SW 15 24 8 13 1012.2 1012.1 0.0
12/03:00am 12.8 8.1 5.0 59 3.6 SW 19 28 10 15 1012.1 1012.0 0.0
12/02:30am 12.6 7.9 5.1 60 3.5 SSW 19 28 10 15 1012.0 1011.9 0.0
12/02:00am 12.6 6.5 4.8 59 3.6 SSW 26 35 14 19 1011.7 1011.6 0.0
12/01:30am 12.8 5.6 5.7 62 3.3 SSW 33 43 18 23 1011.4 1011.3 0.0
12/01:00am 13.2 7.2 7.2 67 2.9 SSW 28 37 15 20 1011.0 1010.9 0.0
12/12:30am 13.4 6.6 7.8 69 2.8 SSW 33 46 18 25 1010.7 1010.6 0.0
12/12:19am 13.6 7.2 8.4 71 2.6 SW 32 52 17 28 1010.4 1010.3 0.0
12/12:00am 13.8 7.4 8.4 70 2.7 SSW 32 46 17 25 1010.0 1009.9 0.0
 
Date/Time
CDT
Temp
°C
App
Temp
°C
Dew
Point
°C
Rel
Hum
%
Delta-T
°C
Wind Press
QNH
hPa
Press
MSL
hPa
Rain since
9am
mm
Dir  Spd
km/h
Gust
km/h
Spd
kts
Gust
kts
11/11:45pm 14.0 7.8 9.4 74 2.4 SW 32 50 17 27 1009.7 1009.6 0.0
11/11:30pm 14.0 7.4 10.0 77 2.1 SSW 35 50 19 27 1009.6 1009.5 0.0
11/11:00pm 14.8 8.4 10.8 77 2.1 SSW 35 54 19 29 1008.7 1008.6 0.0
11/10:30pm 15.6 8.6 11.2 75 2.4 SSW 39 52 21 28 1007.7 1007.6 0.0
11/10:00pm 16.7 9.6 11.0 69 3.1 SSW 39 52 21 28 1006.5 1006.3 0.0
11/09:39pm 18.1 12.8 10.0 59 4.3 SSW 28 46 15 25 1005.3 1005.1 0.0
11/09:30pm 18.5 14.2 9.3 55 4.9 SSW 22 33 12 18 1004.9 1004.7 0.0
11/09:00pm 19.2 15.7 8.8 51 5.5 S 17 28 9 15 1003.9 1003.7 0.0
11/08:44pm 20.2 14.5 8.2 46 6.2 SSW 28 35 15 19 1003.6 1003.4 0.0
11/08:30pm 25.4 19.3 2.8 23 11.1 WSW 24 35 13 19 1003.0 1002.8 0.0
11/08:02pm 28.4 22.0 -1.6 14 13.8 W 22 46 12 25 1002.2 1002.0 0.0
11/08:00pm 28.6 22.5 -3.6 12 14.3 W 19 33 10 18 1002.1 1001.9 0.0
11/07:30pm 29.6 23.9 -3.9 11 15.0 NNW 17 24 9 13 1001.2 1001.1 0.0
11/07:00pm 30.2 23.6 -3.5 11 15.2 NNW 22 30 12 16 1001.5 1001.4 0.0
11/06:30pm 31.5 23.7 -3.8 10 16.1 NNW 28 41 15 22 1001.7 1001.6 0.0
11/06:00pm 31.9 22.7 -4.9 9 16.5 NNW 35 54 19 29 1001.2 1001.1 0.0
11/05:33pm 31.1 21.9 -4.1 10 15.8 NNW 35 54 19 29 1001.6 1001.5 0.0
11/05:30pm 31.2 22.1 -4.0 10 15.9 NNW 35 50 19 27 1001.9 1001.8 0.0
11/05:15pm 31.0 22.2 -4.1 10 15.8 NNW 33 52 18 28 1003.0 1002.8 0.0
11/05:00pm 31.9 23.2 -3.5 10 16.2 NNW 33 48 18 26 1003.2 1003.0 0.0
11/04:30pm 32.1 23.4 -3.3 10 16.3 NNW 33 56 18 30 1003.5 1003.3 0.0
11/04:21pm 31.6 22.5 -3.7 10 16.0 NNW 35 56 19 30 1003.8 1003.6 0.0
11/04:00pm 31.9 22.8 -3.5 10 16.2 NW 35 46 19 25 1004.7 1004.5 0.0
11/03:30pm 30.7 22.3 -5.8 9 15.9 NW 30 48 16 26 1005.2 1005.0 0.0
11/03:12pm 30.5 21.9 -4.5 10 15.6 NW 32 54 17 29 1005.6 1005.4 0.0
11/03:00pm 30.2 21.9 -4.8 10 15.5 NW 30 46 16 25 1005.9 1005.7 0.0
11/02:30pm 31.6 23.7 -5.1 9 16.3 NNW 28 46 15 25 1006.4 1006.2 0.0
11/02:07pm 32.1 24.1 -2.0 11 16.0 NNW 30 48 16 26 1006.7 1006.6 0.0
11/02:00pm 32.2 24.2 -2.0 11 16.1 NW 30 46 16 25 1006.7 1006.6 0.0
11/01:30pm 31.2 22.8 -2.7 11 15.7 NW 32 44 17 24 1007.3 1007.2 0.0
11/01:00pm 31.2 23.2 -2.7 11 15.6 NNW 30 43 16 23 1007.6 1007.5 0.0
11/12:30pm 30.4 22.0 -2.2 12 15.1 NNW 32 43 17 23 1008.2 1008.1 0.0
11/12:25pm 30.6 22.6 -2.0 12 15.1 NNW 30 48 16 26 1008.2 1008.1 0.0
11/12:00pm 29.9 21.3 -2.6 12 14.9 NW 33 46 18 25 1008.5 1008.4 0.0
11/11:51am 29.7 22.0 -2.7 12 14.8 NNW 28 46 15 25 1008.6 1008.5 0.0
11/11:30am 29.7 22.2 -1.6 13 14.6 NNW 28 41 15 22 1008.9 1008.8 0.0
11/11:00am 28.6 21.1 -1.5 14 13.9 NNW 28 44 15 24 1008.8 1008.7 0.0
11/10:56am 28.4 20.7 -2.6 13 14.0 NNW 28 46 15 25 1008.7 1008.6 0.0
11/10:30am 28.1 20.3 -0.9 15 13.5 NNW 30 46 16 25 1008.7 1008.6 0.0
11/10:22am 27.8 20.2 -2.1 14 13.6 NNW 28 46 15 25 1008.7 1008.6 0.0
11/10:00am 27.0 20.6 -1.8 15 13.1 N 22 39 12 21 1009.0 1008.9 0.0
11/09:30am 27.1 21.9 0.0 17 12.7 N 17 28 9 15 1009.1 1009.0 0.0
11/09:00am 26.6 20.8 -0.4 17 12.5 N 20 30 11 16 1009.3 1009.2 0.0
11/08:30am 24.4 18.8 1.3 22 10.9 NE 20 30 11 16 1009.5 1009.4 0.0
11/08:00am 21.8 15.3 0.4 24 9.7 NNE 24 33 13 18 1009.6 1009.5 0.0
11/07:30am 20.4 14.3 0.3 26 9.0 NNE 22 30 12 16 1010.0 1009.9 0.0
11/07:00am 19.5 14.4 0.5 28 8.5 NNE 17 24 9 13 1010.4 1010.3 0.0
11/06:30am 18.6 13.4 0.2 29 8.1 N 17 22 9 12 1010.5 1010.4 0.0
11/06:00am 16.8 11.0 0.0 32 7.2 NNW 20 26 11 14 1010.4 1010.3 0.0
11/05:30am 15.8 10.5 -0.4 33 6.9 NW 17 22 9 12 1010.4 1010.3 0.0
11/05:12am 15.6 11.1 2.1 40 6.0 NNW 15 20 8 11 1010.3 1010.2 0.0
11/05:00am 10.5 7.0 3.3 61 3.1 N 11 15 6 8 1010.3 1010.2 0.0
11/04:30am 11.6 7.7 3.6 58 3.6 NNE 13 19 7 10 1010.5 1010.4 0.0
11/04:00am 11.1 7.4 4.6 64 2.9 N 13 17 7 9 1011.0 1010.9 0.0
11/03:30am 8.8 6.0 3.4 69 2.3 NNE 7 9 4 5 1011.6 1011.5 0.0
11/03:00am 8.7 5.9 3.1 68 2.4 N 7 11 4 6 1011.8 1011.7 0.0
11/02:30am 8.6 5.1 3.6 71 2.2 NNW 11 13 6 7 1012.3 1012.2 0.0
11/02:00am 8.8 5.5 4.8 76 1.8 N 11 13 6 7 1012.9 1012.8 0.0
11/01:30am 8.6 6.1 4.8 77 1.7 NNE 7 7 4 4 1013.6 1013.5 0.0
11/01:00am 9.2 5.6 5.2 76 1.8 N 13 15 7 8 1014.3 1014.2 0.0
11/12:30am 9.2 6.5 5.6 78 1.6 N 9 11 5 6 1014.8 1014.7 0.0
11/12:00am 9.2 6.2 6.1 81 1.4 NNW 11 13 6 7 1015.1 1015.0 0.0
 
Date/Time
CDT
Temp
°C
App
Temp
°C
Dew
Point
°C
Rel
Hum
%
Delta-T
°C
Wind Press
QNH
hPa
Press
MSL
hPa
Rain since
9am
mm
Dir  Spd
km/h
Gust
km/h
Spd
kts
Gust
kts
10/11:30pm 9.4 6.1 6.3 81 1.4 NNW 13 13 7 7 1015.4 1015.3 0.0
10/11:00pm 9.6 7.1 6.5 81 1.4 NNW 9 11 5 6 1015.8 1015.7 0.0
10/10:30pm 9.8 7.9 6.7 81 1.5 NNW 6 9 3 5 1016.1 1016.0 0.0
10/10:00pm 10.4 7.6 7.1 80 1.6 NW 11 15 6 8 1016.3 1016.2 0.0
10/09:30pm 10.3 7.8 6.6 78 1.7 NNW 9 11 5 6 1016.3 1016.2 0.0
10/09:00pm 12.3 10.5 7.8 74 2.2 WSW 7 9 4 5 1016.4 1016.3 0.0
10/08:30pm 13.2 11.3 7.4 68 2.8 SSW 7 9 4 5 1016.2 1016.1 0.0
10/08:00pm 14.4 12.2 7.9 65 3.2 S 9 11 5 6 1016.2 1016.1 0.0
10/07:30pm 16.4 13.5 8.1 58 4.2 S 13 15 7 8 1016.1 1016.0 0.0
10/07:00pm 17.7 14.0 8.0 53 5.0 SSE 17 20 9 11 1016.1 1016.0 0.0
10/06:30pm 19.3 15.5 7.7 47 5.9 SSW 17 22 9 12 1015.9 1015.8 0.0
10/06:00pm 20.0 15.6 7.4 44 6.4 SSW 20 26 11 14 1016.1 1016.0 0.0
10/05:30pm 21.1 17.1 6.6 39 7.4 S 17 24 9 13 1015.9 1015.8 0.0
10/05:00pm 21.4 17.4 6.5 38 7.6 S 17 22 9 12 1015.7 1015.6 0.0
10/04:30pm 22.2 17.9 7.2 38 7.8 S 19 26 10 14 1015.8 1015.7 0.0
10/04:00pm 21.9 17.6 7.0 38 7.7 SSE 19 26 10 14 1016.2 1016.1 0.0
10/03:30pm 21.8 18.2 6.9 38 7.6 SE 15 24 8 13 1016.7 1016.6 0.0
10/03:00pm 23.5 18.7 -0.1 21 10.7 W 15 33 8 18 1017.1 1017.0 0.0
10/02:30pm 23.1 19.2 3.6 28 9.5 SW 13 20 7 11 1017.6 1017.5 0.0
10/02:00pm 22.5 18.3 3.6 29 9.2 SW 15 22 8 12 1017.9 1017.8 0.0
10/01:30pm 22.1 19.3 5.1 33 8.4 SSW 9 20 5 11 1018.4 1018.3 0.0
10/01:00pm 20.9 17.7 4.9 35 7.9 WSW 11 20 6 11 1019.0 1018.9 0.0
10/12:30pm 20.9 17.5 6.1 38 7.4 WSW 13 22 7 12 1019.4 1019.3 0.0
10/12:00pm 20.0 17.5 6.7 42 6.7 S 9 20 5 11 1019.8 1019.7 0.0
10/11:30am 18.2 15.4 5.1 42 6.3 WSW 9 20 5 11 1020.4 1020.2 0.0
10/11:00am 17.5 14.4 5.4 45 5.9 WNW 11 17 6 9 1020.8 1020.6 0.0
10/10:30am 16.6 14.0 5.9 49 5.2 WNW 9 15 5 8 1021.2 1021.0 0.0
10/10:00am 15.9 13.2 5.8 51 4.9 SW 9 15 5 8 1021.5 1021.4 0.0
10/09:30am 15.2 12.1 5.7 53 4.5 SW 11 17 6 9 1021.6 1021.5 0.0
10/09:00am 14.4 10.9 5.5 55 4.2 SSW 13 19 7 10 1021.8 1021.7 0.0
10/08:30am 13.4 9.6 5.6 59 3.7 SW 15 20 8 11 1021.9 1021.8 0.0
10/08:00am 12.6 8.3 5.3 61 3.4 SW 17 24 9 13 1021.6 1021.5 0.0
10/07:30am 12.5 8.6 5.4 62 3.3 WSW 15 20 8 11 1021.3 1021.2 0.0
10/07:00am 12.3 9.2 5.5 63 3.2 WSW 11 19 6 10 1021.1 1020.9 0.0
10/06:30am 12.2 9.1 5.6 64 3.1 WSW 11 17 6 9 1020.9 1020.7 0.0

Latest Capital City Observations: Canberra | Sydney | Melbourne | Brisbane | Adelaide | Perth | Hobart | Darwin

Other formats

Comma delimited format used in spreadsheet applications
http://www.bom.gov.au/fwo/IDS60901/IDS60901.94814.axf

JavaScript Object Notation format (JSON) in row-major order
http://www.bom.gov.au/fwo/IDS60901/IDS60901.94814.json

Data quality

Most of these data are generated automatically and are frequently updated. Quality checks on data are not normally performed. It is possible for incorrect values to appear. Refer to information at About Latest Weather Observations and please check the disclaimer before using these data.